Pagina principale
METAR-TAF:

METAR-TAF

Aeroporti :

Aeroporto di Londra-Luton

Luton, Inghilterra

latitudine: 51-52N, longitudine: 000-22W, altezza: 160 m

Osservazione

Il bollettino è stato emesso 28 minuti fa, alle 18:50 UTC
Vento 9 kt da ovest
Temperature 16°C
Umidità 59%
Pressione 1013 hPa
Visibilità 10 km o più
Nuvoloso ad un'altezza di 4100 ft

METAR: EGGW 201850Z AUTO 27009KT 9999 BKN041 16/08 Q1013

Ora: 20:18 (19:18 UTC)

Previsione

Il bollettino è stato emesso 2 ore e 18 minuti fa, alle 17:00 UTC
Previsione valida dal 20 alle 18 UTC al 21 alle 18 UTC
Vento 8 kt da ovest
Visibilità 10 km o più
Poco nuvoloso ad un'altezza di 4000 ft

TAF: EGGW 201700Z 2018/2118 26008KT 9999 FEW040

Osservazioni e previsioni meteorologiche di più di 4000 aeroporti (messaggi METAR e TAF).

Le stazioni disponibili sono rappresentate dai dischi gialli e rossi sulla carta.

Puntare il mouse per vedere il nome della stazione.

Clicca sopra per visualizzare le osservazioni e previsioni meteorologiche.

Per cambiare la mappa : fare clic sui pulsanti verdi con una croce nera per ingrandire, il pulsante verde con un trattino per diminuire, o sulla freccia verde per le mappe adiacenti.


METAR-TAF: